sensor_id;sensor_type;location;lat;lon;timestamp;P1;durP1;ratioP1;P2;durP2;ratioP2
6679;SDS011;3376;42.664;23.346;2022-12-18T00:00:03;4.97;;;4.67;;
6679;SDS011;3376;42.664;23.346;2022-12-18T00:02:31;4.50;;;4.10;;
6679;SDS011;3376;42.664;23.346;2022-12-18T00:04:58;4.07;;;3.87;;
6679;SDS011;3376;42.664;23.346;2022-12-18T00:07:25;4.60;;;4.40;;
6679;SDS011;3376;42.664;23.346;2022-12-18T00:09:53;4.50;;;4.20;;
6679;SDS011;3376;42.664;23.346;2022-12-18T00:12:20;4.30;;;4.00;;
6679;SDS011;3376;42.664;23.346;2022-12-18T00:14:46;5.00;;;4.80;;
6679;SDS011;3376;42.664;23.346;2022-12-18T00:17:13;4.83;;;4.63;;
6679;SDS011;3376;42.664;23.346;2022-12-18T00:19:40;5.33;;;5.03;;
6679;SDS011;3376;42.664;23.346;2022-12-18T00:22:07;5.33;;;5.03;;
6679;SDS011;3376;42.664;23.346;2022-12-18T00:24:33;5.23;;;5.00;;
6679;SDS011;3376;42.664;23.346;2022-12-18T00:27:01;5.93;;;5.63;;
6679;SDS011;3376;42.664;23.346;2022-12-18T00:29:28;5.20;;;4.90;;
6679;SDS011;3376;42.664;23.346;2022-12-18T00:31:55;5.27;;;5.07;;
6679;SDS011;3376;42.664;23.346;2022-12-18T00:34:22;5.10;;;4.80;;
6679;SDS011;3376;42.664;23.346;2022-12-18T00:36:48;5.93;;;5.53;;
6679;SDS011;3376;42.664;23.346;2022-12-18T00:39:15;5.70;;;5.40;;
6679;SDS011;3376;42.664;23.346;2022-12-18T00:41:42;5.37;;;5.07;;
6679;SDS011;3376;42.664;23.346;2022-12-18T00:44:28;5.90;;;5.60;;
6679;SDS011;3376;42.664;23.346;2022-12-18T00:46:54;5.10;;;4.90;;
6679;SDS011;3376;42.664;23.346;2022-12-18T00:49:21;6.33;;;6.03;;
6679;SDS011;3376;42.664;23.346;2022-12-18T00:51:48;6.17;;;5.80;;
6679;SDS011;3376;42.664;23.346;2022-12-18T00:54:15;6.27;;;5.97;;
6679;SDS011;3376;42.664;23.346;2022-12-18T00:56:42;6.67;;;6.13;;
6679;SDS011;3376;42.664;23.346;2022-12-18T00:59:09;6.70;;;6.30;;
6679;SDS011;3376;42.664;23.346;2022-12-18T01:01:37;6.70;;;6.37;;
6679;SDS011;3376;42.664;23.346;2022-12-18T01:04:04;5.70;;;5.40;;
6679;SDS011;3376;42.664;23.346;2022-12-18T01:06:31;6.93;;;6.53;;
6679;SDS011;3376;42.664;23.346;2022-12-18T01:08:57;7.10;;;6.47;;
6679;SDS011;3376;42.664;23.346;2022-12-18T01:11:24;6.97;;;6.47;;
6679;SDS011;3376;42.664;23.346;2022-12-18T01:13:51;6.77;;;6.37;;
6679;SDS011;3376;42.664;23.346;2022-12-18T01:16:18;7.10;;;6.70;;
6679;SDS011;3376;42.664;23.346;2022-12-18T01:18:47;6.23;;;5.83;;
6679;SDS011;3376;42.664;23.346;2022-12-18T01:21:14;6.20;;;5.90;;
6679;SDS011;3376;42.664;23.346;2022-12-18T01:23:42;5.60;;;5.30;;
6679;SDS011;3376;42.664;23.346;2022-12-18T01:26:12;6.53;;;6.13;;
6679;SDS011;3376;42.664;23.346;2022-12-18T01:28:41;6.60;;;6.17;;
6679;SDS011;3376;42.664;23.346;2022-12-18T01:31:12;6.57;;;6.10;;
6679;SDS011;3376;42.664;23.346;2022-12-18T01:33:41;6.50;;;6.10;;
6679;SDS011;3376;42.664;23.346;2022-12-18T01:36:13;6.27;;;5.87;;
6679;SDS011;3376;42.664;23.346;2022-12-18T01:38:41;6.80;;;6.30;;
6679;SDS011;3376;42.664;23.346;2022-12-18T01:41:08;6.77;;;6.37;;
6679;SDS011;3376;42.664;23.346;2022-12-18T01:43:51;7.37;;;6.87;;
6679;SDS011;3376;42.664;23.346;2022-12-18T01:46:20;7.13;;;6.73;;
6679;SDS011;3376;42.664;23.346;2022-12-18T01:48:48;7.17;;;6.67;;
6679;SDS011;3376;42.664;23.346;2022-12-18T01:51:19;7.07;;;6.57;;
6679;SDS011;3376;42.664;23.346;2022-12-18T01:53:46;7.23;;;6.57;;
6679;SDS011;3376;42.664;23.346;2022-12-18T01:56:16;6.80;;;6.30;;
6679;SDS011;3376;42.664;23.346;2022-12-18T01:58:50;6.77;;;6.27;;
6679;SDS011;3376;42.664;23.346;2022-12-18T02:01:21;6.47;;;6.13;;
6679;SDS011;3376;42.664;23.346;2022-12-18T02:03:49;6.67;;;6.03;;
6679;SDS011;3376;42.664;23.346;2022-12-18T02:06:20;6.67;;;6.27;;
6679;SDS011;3376;42.664;23.346;2022-12-18T02:09:02;6.47;;;6.03;;
6679;SDS011;3376;42.664;23.346;2022-12-18T02:11:37;7.37;;;6.93;;
6679;SDS011;3376;42.664;23.346;2022-12-18T02:14:13;7.73;;;7.23;;
6679;SDS011;3376;42.664;23.346;2022-12-18T02:16:45;7.53;;;6.93;;
6679;SDS011;3376;42.664;23.346;2022-12-18T02:19:26;6.67;;;6.27;;
6679;SDS011;3376;42.664;23.346;2022-12-18T02:22:10;6.03;;;5.67;;
6679;SDS011;3376;42.664;23.346;2022-12-18T02:24:53;6.43;;;6.13;;
6679;SDS011;3376;42.664;23.346;2022-12-18T02:27:27;7.00;;;6.57;;
6679;SDS011;3376;42.664;23.346;2022-12-18T02:29:58;8.43;;;7.77;;
6679;SDS011;3376;42.664;23.346;2022-12-18T02:32:27;6.93;;;6.33;;
6679;SDS011;3376;42.664;23.346;2022-12-18T02:34:57;5.93;;;5.63;;
6679;SDS011;3376;42.664;23.346;2022-12-18T02:37:25;6.03;;;5.73;;
6679;SDS011;3376;42.664;23.346;2022-12-18T02:39:54;6.67;;;6.27;;
6679;SDS011;3376;42.664;23.346;2022-12-18T02:42:23;7.07;;;6.37;;
6679;SDS011;3376;42.664;23.346;2022-12-18T02:44:52;6.57;;;6.00;;
6679;SDS011;3376;42.664;23.346;2022-12-18T02:47:19;5.60;;;5.30;;
6679;SDS011;3376;42.664;23.346;2022-12-18T02:49:51;6.10;;;5.80;;
6679;SDS011;3376;42.664;23.346;2022-12-18T02:52:30;6.27;;;5.87;;
6679;SDS011;3376;42.664;23.346;2022-12-18T02:55:05;5.83;;;5.53;;
6679;SDS011;3376;42.664;23.346;2022-12-18T02:57:44;6.43;;;5.87;;
6679;SDS011;3376;42.664;23.346;2022-12-18T03:00:18;5.83;;;5.53;;
6679;SDS011;3376;42.664;23.346;2022-12-18T03:02:48;6.10;;;5.70;;
6679;SDS011;3376;42.664;23.346;2022-12-18T03:05:22;6.87;;;6.50;;
6679;SDS011;3376;42.664;23.346;2022-12-18T03:07:56;6.43;;;6.10;;
6679;SDS011;3376;42.664;23.346;2022-12-18T03:10:28;6.77;;;6.27;;
6679;SDS011;3376;42.664;23.346;2022-12-18T03:12:59;6.70;;;6.20;;
6679;SDS011;3376;42.664;23.346;2022-12-18T03:15:31;6.00;;;5.70;;
6679;SDS011;3376;42.664;23.346;2022-12-18T03:18:02;6.57;;;6.07;;
6679;SDS011;3376;42.664;23.346;2022-12-18T03:20:34;6.47;;;6.10;;
6679;SDS011;3376;42.664;23.346;2022-12-18T03:23:04;6.60;;;6.10;;
6679;SDS011;3376;42.664;23.346;2022-12-18T03:25:35;6.07;;;5.77;;
6679;SDS011;3376;42.664;23.346;2022-12-18T03:28:06;6.67;;;6.17;;
6679;SDS011;3376;42.664;23.346;2022-12-18T03:30:37;6.83;;;6.50;;
6679;SDS011;3376;42.664;23.346;2022-12-18T03:33:09;6.53;;;6.13;;
6679;SDS011;3376;42.664;23.346;2022-12-18T03:35:42;6.17;;;5.87;;
6679;SDS011;3376;42.664;23.346;2022-12-18T03:38:10;7.33;;;5.90;;
6679;SDS011;3376;42.664;23.346;2022-12-18T03:40:41;6.03;;;5.73;;
6679;SDS011;3376;42.664;23.346;2022-12-18T03:43:16;6.43;;;6.07;;
6679;SDS011;3376;42.664;23.346;2022-12-18T03:45:50;6.60;;;6.10;;
6679;SDS011;3376;42.664;23.346;2022-12-18T03:48:21;5.87;;;5.57;;
6679;SDS011;3376;42.664;23.346;2022-12-18T03:50:56;6.50;;;6.00;;
6679;SDS011;3376;42.664;23.346;2022-12-18T03:53:27;6.73;;;6.07;;
6679;SDS011;3376;42.664;23.346;2022-12-18T03:55:59;5.90;;;5.60;;
6679;SDS011;3376;42.664;23.346;2022-12-18T03:58:28;6.30;;;5.90;;
6679;SDS011;3376;42.664;23.346;2022-12-18T04:01:00;6.83;;;6.43;;
6679;SDS011;3376;42.664;23.346;2022-12-18T04:03:29;6.23;;;5.83;;
6679;SDS011;3376;42.664;23.346;2022-12-18T04:05:58;6.07;;;5.67;;
6679;SDS011;3376;42.664;23.346;2022-12-18T04:08:27;6.53;;;6.13;;
6679;SDS011;3376;42.664;23.346;2022-12-18T04:10:54;6.13;;;5.73;;
6679;SDS011;3376;42.664;23.346;2022-12-18T04:13:21;6.40;;;5.90;;
6679;SDS011;3376;42.664;23.346;2022-12-18T04:15:49;6.70;;;6.13;;
6679;SDS011;3376;42.664;23.346;2022-12-18T04:18:18;6.60;;;6.17;;
6679;SDS011;3376;42.664;23.346;2022-12-18T04:20:45;7.33;;;6.83;;
6679;SDS011;3376;42.664;23.346;2022-12-18T04:23:12;7.00;;;6.50;;
6679;SDS011;3376;42.664;23.346;2022-12-18T04:25:38;6.80;;;6.37;;
6679;SDS011;3376;42.664;23.346;2022-12-18T04:28:05;6.53;;;6.13;;
6679;SDS011;3376;42.664;23.346;2022-12-18T04:30:32;7.33;;;6.73;;
6679;SDS011;3376;42.664;23.346;2022-12-18T04:32:59;7.37;;;6.87;;
6679;SDS011;3376;42.664;23.346;2022-12-18T04:35:27;7.73;;;7.13;;
6679;SDS011;3376;42.664;23.346;2022-12-18T04:37:54;6.53;;;6.10;;
6679;SDS011;3376;42.664;23.346;2022-12-18T04:40:20;7.13;;;6.63;;
6679;SDS011;3376;42.664;23.346;2022-12-18T04:42:47;8.17;;;7.57;;
6679;SDS011;3376;42.664;23.346;2022-12-18T04:45:14;8.57;;;7.70;;
6679;SDS011;3376;42.664;23.346;2022-12-18T04:47:41;8.70;;;8.00;;
6679;SDS011;3376;42.664;23.346;2022-12-18T04:50:07;7.27;;;6.77;;
6679;SDS011;3376;42.664;23.346;2022-12-18T04:52:36;8.00;;;7.40;;
6679;SDS011;3376;42.664;23.346;2022-12-18T04:55:02;8.47;;;7.70;;
6679;SDS011;3376;42.664;23.346;2022-12-18T04:57:29;8.37;;;7.53;;
6679;SDS011;3376;42.664;23.346;2022-12-18T04:59:56;8.73;;;7.93;;
6679;SDS011;3376;42.664;23.346;2022-12-18T05:02:23;8.07;;;7.47;;
6679;SDS011;3376;42.664;23.346;2022-12-18T05:04:50;9.03;;;8.33;;
6679;SDS011;3376;42.664;23.346;2022-12-18T05:07:16;8.77;;;8.03;;
6679;SDS011;3376;42.664;23.346;2022-12-18T05:09:44;8.40;;;7.80;;
6679;SDS011;3376;42.664;23.346;2022-12-18T05:12:11;8.67;;;7.87;;
6679;SDS011;3376;42.664;23.346;2022-12-18T05:14:38;8.80;;;8.20;;
6679;SDS011;3376;42.664;23.346;2022-12-18T05:17:04;9.30;;;8.50;;
6679;SDS011;3376;42.664;23.346;2022-12-18T05:19:31;9.47;;;8.67;;
6679;SDS011;3376;42.664;23.346;2022-12-18T05:21:58;8.70;;;7.90;;
6679;SDS011;3376;42.664;23.346;2022-12-18T05:24:25;10.33;;;9.43;;
6679;SDS011;3376;42.664;23.346;2022-12-18T05:26:53;9.03;;;8.40;;
6679;SDS011;3376;42.664;23.346;2022-12-18T05:29:19;9.57;;;8.77;;
6679;SDS011;3376;42.664;23.346;2022-12-18T05:31:46;9.23;;;8.53;;
6679;SDS011;3376;42.664;23.346;2022-12-18T05:34:13;8.50;;;7.83;;
6679;SDS011;3376;42.664;23.346;2022-12-18T05:36:40;9.97;;;8.97;;
6679;SDS011;3376;42.664;23.346;2022-12-18T05:39:07;11.03;;;10.10;;
6679;SDS011;3376;42.664;23.346;2022-12-18T05:41:34;9.17;;;8.37;;
6679;SDS011;3376;42.664;23.346;2022-12-18T05:44:02;10.60;;;9.63;;
6679;SDS011;3376;42.664;23.346;2022-12-18T05:46:29;9.53;;;8.73;;
6679;SDS011;3376;42.664;23.346;2022-12-18T05:48:58;9.50;;;8.70;;
6679;SDS011;3376;42.664;23.346;2022-12-18T05:51:25;9.23;;;8.43;;
6679;SDS011;3376;42.664;23.346;2022-12-18T05:53:52;10.07;;;9.27;;
6679;SDS011;3376;42.664;23.346;2022-12-18T05:56:20;9.17;;;8.53;;
6679;SDS011;3376;42.664;23.346;2022-12-18T05:58:51;9.77;;;8.80;;
6679;SDS011;3376;42.664;23.346;2022-12-18T06:01:20;9.87;;;8.93;;
6679;SDS011;3376;42.664;23.346;2022-12-18T06:03:49;11.73;;;9.97;;
6679;SDS011;3376;42.664;23.346;2022-12-18T06:06:16;10.43;;;9.63;;
6679;SDS011;3376;42.664;23.346;2022-12-18T06:08:43;10.50;;;9.50;;
6679;SDS011;3376;42.664;23.346;2022-12-18T06:11:11;11.97;;;10.97;;
6679;SDS011;3376;42.664;23.346;2022-12-18T06:13:38;12.07;;;11.13;;
6679;SDS011;3376;42.664;23.346;2022-12-18T06:16:05;9.73;;;8.83;;
6679;SDS011;3376;42.664;23.346;2022-12-18T06:18:36;11.50;;;9.63;;
6679;SDS011;3376;42.664;23.346;2022-12-18T06:21:03;10.77;;;9.67;;
6679;SDS011;3376;42.664;23.346;2022-12-18T06:23:30;11.33;;;10.43;;
6679;SDS011;3376;42.664;23.346;2022-12-18T06:25:57;9.87;;;8.97;;
6679;SDS011;3376;42.664;23.346;2022-12-18T06:28:24;10.53;;;9.47;;
6679;SDS011;3376;42.664;23.346;2022-12-18T06:30:50;10.67;;;9.77;;
6679;SDS011;3376;42.664;23.346;2022-12-18T06:33:18;10.07;;;9.27;;
6679;SDS011;3376;42.664;23.346;2022-12-18T06:35:46;10.43;;;9.43;;
6679;SDS011;3376;42.664;23.346;2022-12-18T06:38:13;12.40;;;10.27;;
6679;SDS011;3376;42.664;23.346;2022-12-18T06:40:40;11.00;;;9.90;;
6679;SDS011;3376;42.664;23.346;2022-12-18T06:43:06;12.50;;;11.30;;
6679;SDS011;3376;42.664;23.346;2022-12-18T06:45:33;12.73;;;10.37;;
6679;SDS011;3376;42.664;23.346;2022-12-18T06:48:00;10.90;;;10.00;;
6679;SDS011;3376;42.664;23.346;2022-12-18T06:50:27;12.90;;;11.63;;
6679;SDS011;3376;42.664;23.346;2022-12-18T06:52:55;12.73;;;10.87;;
6679;SDS011;3376;42.664;23.346;2022-12-18T06:55:22;11.00;;;9.87;;
6679;SDS011;3376;42.664;23.346;2022-12-18T06:57:49;13.40;;;10.67;;
6679;SDS011;3376;42.664;23.346;2022-12-18T07:00:16;11.07;;;10.03;;
6679;SDS011;3376;42.664;23.346;2022-12-18T07:02:43;11.17;;;9.13;;
6679;SDS011;3376;42.664;23.346;2022-12-18T07:05:09;11.70;;;10.60;;
6679;SDS011;3376;42.664;23.346;2022-12-18T07:07:36;11.23;;;10.07;;
6679;SDS011;3376;42.664;23.346;2022-12-18T07:10:05;12.13;;;10.20;;
6679;SDS011;3376;42.664;23.346;2022-12-18T07:12:32;11.47;;;10.27;;
6679;SDS011;3376;42.664;23.346;2022-12-18T07:14:58;11.63;;;10.03;;
6679;SDS011;3376;42.664;23.346;2022-12-18T07:17:25;9.17;;;8.47;;
6679;SDS011;3376;42.664;23.346;2022-12-18T07:19:52;10.27;;;9.37;;
6679;SDS011;3376;42.664;23.346;2022-12-18T07:22:19;9.97;;;9.07;;
6679;SDS011;3376;42.664;23.346;2022-12-18T07:24:45;11.23;;;10.17;;
6679;SDS011;3376;42.664;23.346;2022-12-18T07:27:13;11.70;;;10.60;;
6679;SDS011;3376;42.664;23.346;2022-12-18T07:29:40;11.13;;;10.07;;
6679;SDS011;3376;42.664;23.346;2022-12-18T07:32:07;11.90;;;10.77;;
6679;SDS011;3376;42.664;23.346;2022-12-18T07:34:34;13.23;;;11.87;;
6679;SDS011;3376;42.664;23.346;2022-12-18T07:37:01;14.73;;;11.60;;
6679;SDS011;3376;42.664;23.346;2022-12-18T07:39:27;12.70;;;11.27;;
6679;SDS011;3376;42.664;23.346;2022-12-18T07:41:54;13.10;;;11.77;;
6679;SDS011;3376;42.664;23.346;2022-12-18T07:44:40;16.23;;;11.57;;
6679;SDS011;3376;42.664;23.346;2022-12-18T07:47:06;12.47;;;11.33;;
6679;SDS011;3376;42.664;23.346;2022-12-18T07:49:33;17.07;;;11.43;;
6679;SDS011;3376;42.664;23.346;2022-12-18T07:52:00;12.87;;;11.57;;
6679;SDS011;3376;42.664;23.346;2022-12-18T07:54:26;17.67;;;14.27;;
6679;SDS011;3376;42.664;23.346;2022-12-18T07:56:53;14.00;;;12.50;;
6679;SDS011;3376;42.664;23.346;2022-12-18T07:59:20;16.90;;;13.67;;
6679;SDS011;3376;42.664;23.346;2022-12-18T08:01:48;14.83;;;12.90;;
6679;SDS011;3376;42.664;23.346;2022-12-18T08:04:15;16.93;;;13.03;;
6679;SDS011;3376;42.664;23.346;2022-12-18T08:06:42;15.27;;;12.53;;
6679;SDS011;3376;42.664;23.346;2022-12-18T08:09:09;18.47;;;13.27;;
6679;SDS011;3376;42.664;23.346;2022-12-18T08:11:36;14.60;;;12.87;;
6679;SDS011;3376;42.664;23.346;2022-12-18T08:14:03;16.17;;;14.23;;
6679;SDS011;3376;42.664;23.346;2022-12-18T08:16:29;15.97;;;13.60;;
6679;SDS011;3376;42.664;23.346;2022-12-18T08:18:57;19.10;;;14.50;;
6679;SDS011;3376;42.664;23.346;2022-12-18T08:21:25;18.83;;;13.77;;
6679;SDS011;3376;42.664;23.346;2022-12-18T08:23:54;21.40;;;14.50;;
6679;SDS011;3376;42.664;23.346;2022-12-18T08:26:23;18.27;;;14.47;;
6679;SDS011;3376;42.664;23.346;2022-12-18T08:28:52;18.83;;;14.53;;
6679;SDS011;3376;42.664;23.346;2022-12-18T08:31:20;16.37;;;14.10;;
6679;SDS011;3376;42.664;23.346;2022-12-18T08:33:47;18.07;;;14.37;;
6679;SDS011;3376;42.664;23.346;2022-12-18T08:36:17;21.30;;;14.47;;
6679;SDS011;3376;42.664;23.346;2022-12-18T08:38:44;18.97;;;14.83;;
6679;SDS011;3376;42.664;23.346;2022-12-18T08:41:11;15.67;;;14.07;;
6679;SDS011;3376;42.664;23.346;2022-12-18T08:43:40;18.47;;;14.40;;
6679;SDS011;3376;42.664;23.346;2022-12-18T08:46:25;18.80;;;13.60;;
6679;SDS011;3376;42.664;23.346;2022-12-18T08:48:53;17.23;;;13.80;;
6679;SDS011;3376;42.664;23.346;2022-12-18T08:51:22;17.07;;;13.23;;
6679;SDS011;3376;42.664;23.346;2022-12-18T08:53:50;14.33;;;12.50;;
6679;SDS011;3376;42.664;23.346;2022-12-18T08:56:16;15.60;;;13.03;;
6679;SDS011;3376;42.664;23.346;2022-12-18T08:58:43;13.53;;;12.10;;
6679;SDS011;3376;42.664;23.346;2022-12-18T09:01:11;16.57;;;14.17;;
6679;SDS011;3376;42.664;23.346;2022-12-18T09:03:38;17.23;;;13.27;;
6679;SDS011;3376;42.664;23.346;2022-12-18T09:06:06;14.13;;;12.63;;
6679;SDS011;3376;42.664;23.346;2022-12-18T09:08:34;15.53;;;13.30;;
6679;SDS011;3376;42.664;23.346;2022-12-18T09:11:01;17.63;;;13.43;;
6679;SDS011;3376;42.664;23.346;2022-12-18T09:13:28;18.00;;;14.27;;
6679;SDS011;3376;42.664;23.346;2022-12-18T09:15:55;16.83;;;13.33;;
6679;SDS011;3376;42.664;23.346;2022-12-18T09:18:22;15.17;;;13.13;;
6679;SDS011;3376;42.664;23.346;2022-12-18T09:20:50;24.20;;;15.63;;
6679;SDS011;3376;42.664;23.346;2022-12-18T09:23:18;14.73;;;13.13;;
6679;SDS011;3376;42.664;23.346;2022-12-18T09:25:46;22.67;;;14.70;;
6679;SDS011;3376;42.664;23.346;2022-12-18T09:28:13;15.50;;;12.87;;
6679;SDS011;3376;42.664;23.346;2022-12-18T09:30:41;15.07;;;13.03;;
6679;SDS011;3376;42.664;23.346;2022-12-18T09:33:10;19.93;;;14.23;;
6679;SDS011;3376;42.664;23.346;2022-12-18T09:35:40;20.30;;;12.93;;
6679;SDS011;3376;42.664;23.346;2022-12-18T09:38:08;16.50;;;12.03;;
6679;SDS011;3376;42.664;23.346;2022-12-18T09:40:40;14.70;;;13.10;;
6679;SDS011;3376;42.664;23.346;2022-12-18T09:43:12;17.47;;;12.43;;
6679;SDS011;3376;42.664;23.346;2022-12-18T09:45:44;16.13;;;13.23;;
6679;SDS011;3376;42.664;23.346;2022-12-18T09:48:15;45.70;;;31.17;;
6679;SDS011;3376;42.664;23.346;2022-12-18T09:50:47;14.77;;;11.30;;
6679;SDS011;3376;42.664;23.346;2022-12-18T09:53:17;13.17;;;11.77;;
6679;SDS011;3376;42.664;23.346;2022-12-18T09:55:48;12.90;;;11.67;;
6679;SDS011;3376;42.664;23.346;2022-12-18T09:58:17;15.47;;;11.80;;
6679;SDS011;3376;42.664;23.346;2022-12-18T10:00:47;12.33;;;11.10;;
6679;SDS011;3376;42.664;23.346;2022-12-18T10:03:17;13.23;;;11.33;;
6679;SDS011;3376;42.664;23.346;2022-12-18T10:05:46;13.53;;;12.13;;
6679;SDS011;3376;42.664;23.346;2022-12-18T10:08:20;12.20;;;10.40;;
6679;SDS011;3376;42.664;23.346;2022-12-18T10:10:56;14.87;;;11.60;;
6679;SDS011;3376;42.664;23.346;2022-12-18T10:13:30;12.40;;;11.20;;
6679;SDS011;3376;42.664;23.346;2022-12-18T10:16:08;16.13;;;12.20;;
6679;SDS011;3376;42.664;23.346;2022-12-18T10:18:56;14.50;;;11.10;;
6679;SDS011;3376;42.664;23.346;2022-12-18T10:21:36;14.40;;;11.90;;
6679;SDS011;3376;42.664;23.346;2022-12-18T10:24:13;12.17;;;10.63;;
6679;SDS011;3376;42.664;23.346;2022-12-18T10:26:44;17.10;;;12.50;;
6679;SDS011;3376;42.664;23.346;2022-12-18T10:29:13;15.07;;;11.83;;
6679;SDS011;3376;42.664;23.346;2022-12-18T10:31:42;13.47;;;11.23;;
6679;SDS011;3376;42.664;23.346;2022-12-18T10:34:09;14.07;;;12.00;;
6679;SDS011;3376;42.664;23.346;2022-12-18T10:36:36;14.37;;;12.27;;
6679;SDS011;3376;42.664;23.346;2022-12-18T10:39:13;14.47;;;12.13;;
6679;SDS011;3376;42.664;23.346;2022-12-18T10:41:41;11.87;;;10.73;;
6679;SDS011;3376;42.664;23.346;2022-12-18T10:44:17;14.40;;;12.00;;
6679;SDS011;3376;42.664;23.346;2022-12-18T10:46:45;14.97;;;11.37;;
6679;SDS011;3376;42.664;23.346;2022-12-18T10:49:19;12.97;;;10.60;;
6679;SDS011;3376;42.664;23.346;2022-12-18T10:51:49;14.83;;;12.33;;
6679;SDS011;3376;42.664;23.346;2022-12-18T10:54:18;12.97;;;11.47;;
6679;SDS011;3376;42.664;23.346;2022-12-18T10:56:47;15.00;;;11.20;;
6679;SDS011;3376;42.664;23.346;2022-12-18T10:59:14;14.67;;;11.27;;
6679;SDS011;3376;42.664;23.346;2022-12-18T11:01:48;13.10;;;11.80;;
6679;SDS011;3376;42.664;23.346;2022-12-18T11:04:17;17.57;;;13.37;;
6679;SDS011;3376;42.664;23.346;2022-12-18T11:06:53;16.40;;;12.77;;
6679;SDS011;3376;42.664;23.346;2022-12-18T11:09:22;16.77;;;12.53;;
6679;SDS011;3376;42.664;23.346;2022-12-18T11:11:50;12.97;;;11.20;;
6679;SDS011;3376;42.664;23.346;2022-12-18T11:14:20;12.87;;;11.50;;
6679;SDS011;3376;42.664;23.346;2022-12-18T11:16:49;13.27;;;11.93;;
6679;SDS011;3376;42.664;23.346;2022-12-18T11:19:28;12.27;;;11.07;;
6679;SDS011;3376;42.664;23.346;2022-12-18T11:21:59;10.37;;;9.47;;
6679;SDS011;3376;42.664;23.346;2022-12-18T11:24:28;14.77;;;10.90;;
6679;SDS011;3376;42.664;23.346;2022-12-18T11:26:57;12.93;;;11.60;;
6679;SDS011;3376;42.664;23.346;2022-12-18T11:29:30;13.03;;;9.83;;
6679;SDS011;3376;42.664;23.346;2022-12-18T11:32:12;13.50;;;9.97;;
6679;SDS011;3376;42.664;23.346;2022-12-18T11:34:51;10.30;;;9.33;;
6679;SDS011;3376;42.664;23.346;2022-12-18T11:37:24;12.53;;;10.90;;
6679;SDS011;3376;42.664;23.346;2022-12-18T11:39:52;10.93;;;9.77;;
6679;SDS011;3376;42.664;23.346;2022-12-18T11:42:24;17.80;;;10.50;;
6679;SDS011;3376;42.664;23.346;2022-12-18T11:44:59;12.97;;;9.97;;
6679;SDS011;3376;42.664;23.346;2022-12-18T11:47:34;12.93;;;10.47;;
6679;SDS011;3376;42.664;23.346;2022-12-18T11:50:10;12.43;;;9.97;;
6679;SDS011;3376;42.664;23.346;2022-12-18T11:52:40;11.87;;;10.60;;
6679;SDS011;3376;42.664;23.346;2022-12-18T11:55:10;10.83;;;9.87;;
6679;SDS011;3376;42.664;23.346;2022-12-18T11:57:41;12.47;;;10.50;;
6679;SDS011;3376;42.664;23.346;2022-12-18T12:00:15;10.73;;;9.57;;
6679;SDS011;3376;42.664;23.346;2022-12-18T12:03:00;11.43;;;9.87;;
6679;SDS011;3376;42.664;23.346;2022-12-18T12:05:44;12.73;;;10.90;;
6679;SDS011;3376;42.664;23.346;2022-12-18T12:08:22;17.77;;;11.40;;
6679;SDS011;3376;42.664;23.346;2022-12-18T12:11:02;14.83;;;11.93;;
6679;SDS011;3376;42.664;23.346;2022-12-18T12:13:39;12.23;;;11.00;;
6679;SDS011;3376;42.664;23.346;2022-12-18T12:16:16;12.97;;;11.60;;
6679;SDS011;3376;42.664;23.346;2022-12-18T12:18:58;13.60;;;10.93;;
6679;SDS011;3376;42.664;23.346;2022-12-18T12:21:35;12.87;;;11.03;;
6679;SDS011;3376;42.664;23.346;2022-12-18T12:24:13;14.10;;;11.97;;
6679;SDS011;3376;42.664;23.346;2022-12-18T12:26:53;17.60;;;11.73;;
6679;SDS011;3376;42.664;23.346;2022-12-18T12:29:29;13.40;;;11.97;;
6679;SDS011;3376;42.664;23.346;2022-12-18T12:32:10;14.47;;;11.03;;
6679;SDS011;3376;42.664;23.346;2022-12-18T12:34:51;14.13;;;12.17;;
6679;SDS011;3376;42.664;23.346;2022-12-18T12:37:32;18.03;;;11.83;;
6679;SDS011;3376;42.664;23.346;2022-12-18T12:40:06;14.13;;;11.70;;
6679;SDS011;3376;42.664;23.346;2022-12-18T12:42:38;14.30;;;11.87;;
6679;SDS011;3376;42.664;23.346;2022-12-18T12:45:41;11.93;;;10.73;;
6679;SDS011;3376;42.664;23.346;2022-12-18T12:48:16;16.03;;;12.27;;
6679;SDS011;3376;42.664;23.346;2022-12-18T12:50:46;17.43;;;12.47;;
6679;SDS011;3376;42.664;23.346;2022-12-18T12:53:17;15.87;;;12.27;;
6679;SDS011;3376;42.664;23.346;2022-12-18T12:55:51;15.70;;;12.07;;
6679;SDS011;3376;42.664;23.346;2022-12-18T12:58:21;14.67;;;11.40;;
6679;SDS011;3376;42.664;23.346;2022-12-18T13:00:58;14.60;;;12.00;;
6679;SDS011;3376;42.664;23.346;2022-12-18T13:03:36;15.13;;;12.50;;
6679;SDS011;3376;42.664;23.346;2022-12-18T13:06:12;16.97;;;13.17;;
6679;SDS011;3376;42.664;23.346;2022-12-18T13:08:53;13.80;;;12.33;;
6679;SDS011;3376;42.664;23.346;2022-12-18T13:11:28;14.27;;;12.47;;
6679;SDS011;3376;42.664;23.346;2022-12-18T13:14:20;16.30;;;12.93;;
6679;SDS011;3376;42.664;23.346;2022-12-18T13:16:48;15.37;;;13.00;;
6679;SDS011;3376;42.664;23.346;2022-12-18T13:19:22;12.50;;;11.20;;
6679;SDS011;3376;42.664;23.346;2022-12-18T13:21:53;15.03;;;13.03;;
6679;SDS011;3376;42.664;23.346;2022-12-18T13:24:23;13.87;;;12.33;;
6679;SDS011;3376;42.664;23.346;2022-12-18T13:26:52;19.97;;;13.33;;
6679;SDS011;3376;42.664;23.346;2022-12-18T13:32:20;18.50;;;12.77;;
6679;SDS011;3376;42.664;23.346;2022-12-18T13:34:50;16.57;;;12.63;;
6679;SDS011;3376;42.664;23.346;2022-12-18T13:37:55;15.93;;;13.30;;
6679;SDS011;3376;42.664;23.346;2022-12-18T13:46:17;12.77;;;11.47;;
6679;SDS011;3376;42.664;23.346;2022-12-18T13:48:50;16.30;;;12.73;;
6679;SDS011;3376;42.664;23.346;2022-12-18T13:51:22;15.70;;;12.73;;
6679;SDS011;3376;42.664;23.346;2022-12-18T13:53:51;15.53;;;13.03;;
6679;SDS011;3376;42.664;23.346;2022-12-18T13:56:22;18.83;;;14.07;;
6679;SDS011;3376;42.664;23.346;2022-12-18T14:01:44;18.93;;;13.33;;
6679;SDS011;3376;42.664;23.346;2022-12-18T14:04:12;16.53;;;12.87;;
6679;SDS011;3376;42.664;23.346;2022-12-18T14:06:47;13.53;;;10.93;;
6679;SDS011;3376;42.664;23.346;2022-12-18T14:09:15;16.77;;;11.97;;
6679;SDS011;3376;42.664;23.346;2022-12-18T14:11:46;12.93;;;11.27;;
6679;SDS011;3376;42.664;23.346;2022-12-18T14:14:15;16.03;;;13.07;;
6679;SDS011;3376;42.664;23.346;2022-12-18T14:16:43;14.83;;;12.47;;
6679;SDS011;3376;42.664;23.346;2022-12-18T14:19:11;14.60;;;11.57;;
6679;SDS011;3376;42.664;23.346;2022-12-18T14:21:40;13.30;;;11.60;;
6679;SDS011;3376;42.664;23.346;2022-12-18T14:24:15;17.50;;;12.23;;
6679;SDS011;3376;42.664;23.346;2022-12-18T14:26:42;11.40;;;10.20;;
6679;SDS011;3376;42.664;23.346;2022-12-18T14:29:23;12.27;;;11.07;;
6679;SDS011;3376;42.664;23.346;2022-12-18T14:32:05;12.83;;;10.27;;
6679;SDS011;3376;42.664;23.346;2022-12-18T14:34:34;12.77;;;10.63;;
6679;SDS011;3376;42.664;23.346;2022-12-18T14:37:02;12.30;;;10.97;;
6679;SDS011;3376;42.664;23.346;2022-12-18T14:39:29;14.00;;;11.57;;
6679;SDS011;3376;42.664;23.346;2022-12-18T14:41:56;11.73;;;10.37;;
6679;SDS011;3376;42.664;23.346;2022-12-18T14:44:23;13.60;;;10.50;;
6679;SDS011;3376;42.664;23.346;2022-12-18T14:46:50;14.00;;;10.03;;
6679;SDS011;3376;42.664;23.346;2022-12-18T14:49:21;12.30;;;11.10;;
6679;SDS011;3376;42.664;23.346;2022-12-18T14:51:51;11.93;;;10.37;;
6679;SDS011;3376;42.664;23.346;2022-12-18T14:54:22;10.63;;;9.63;;
6679;SDS011;3376;42.664;23.346;2022-12-18T14:56:50;11.60;;;10.27;;
6679;SDS011;3376;42.664;23.346;2022-12-18T14:59:21;11.60;;;10.33;;
6679;SDS011;3376;42.664;23.346;2022-12-18T15:01:53;11.87;;;10.13;;
6679;SDS011;3376;42.664;23.346;2022-12-18T15:04:25;10.60;;;9.50;;
6679;SDS011;3376;42.664;23.346;2022-12-18T15:07:11;12.70;;;10.70;;
6679;SDS011;3376;42.664;23.346;2022-12-18T15:09:42;12.23;;;10.67;;
6679;SDS011;3376;42.664;23.346;2022-12-18T15:12:19;12.20;;;10.83;;
6679;SDS011;3376;42.664;23.346;2022-12-18T15:14:52;12.17;;;10.60;;